sensor_id;sensor_type;location;lat;lon;timestamp;P1;durP1;ratioP1;P2;durP2;ratioP2
4448;SDS011;2237;51.870;6.160;2023-03-05T00:02:00;4.03;;;0.90;;
4448;SDS011;2237;51.870;6.160;2023-03-05T00:04:26;7.53;;;1.13;;
4448;SDS011;2237;51.870;6.160;2023-03-05T00:06:52;9.82;;;2.03;;
4448;SDS011;2237;51.870;6.160;2023-03-05T00:09:20;7.07;;;1.27;;
4448;SDS011;2237;51.870;6.160;2023-03-05T00:11:47;7.78;;;1.30;;
4448;SDS011;2237;51.870;6.160;2023-03-05T00:14:13;4.93;;;0.98;;
4448;SDS011;2237;51.870;6.160;2023-03-05T00:16:39;6.57;;;0.88;;
4448;SDS011;2237;51.870;6.160;2023-03-05T00:19:05;9.77;;;1.10;;
4448;SDS011;2237;51.870;6.160;2023-03-05T00:21:34;4.55;;;0.75;;
4448;SDS011;2237;51.870;6.160;2023-03-05T00:24:03;6.70;;;1.07;;
4448;SDS011;2237;51.870;6.160;2023-03-05T00:26:33;3.88;;;0.80;;
4448;SDS011;2237;51.870;6.160;2023-03-05T00:29:02;7.13;;;0.85;;
4448;SDS011;2237;51.870;6.160;2023-03-05T00:31:29;4.68;;;0.80;;
4448;SDS011;2237;51.870;6.160;2023-03-05T00:33:58;8.63;;;1.08;;
4448;SDS011;2237;51.870;6.160;2023-03-05T00:36:26;5.30;;;0.82;;
4448;SDS011;2237;51.870;6.160;2023-03-05T00:38:53;6.47;;;0.95;;
4448;SDS011;2237;51.870;6.160;2023-03-05T00:41:20;2.40;;;0.60;;
4448;SDS011;2237;51.870;6.160;2023-03-05T00:43:46;7.07;;;1.00;;
4448;SDS011;2237;51.870;6.160;2023-03-05T00:46:13;3.95;;;0.95;;
4448;SDS011;2237;51.870;6.160;2023-03-05T00:48:40;3.38;;;0.95;;
4448;SDS011;2237;51.870;6.160;2023-03-05T00:51:06;3.85;;;0.70;;
4448;SDS011;2237;51.870;6.160;2023-03-05T00:53:34;8.02;;;0.85;;
4448;SDS011;2237;51.870;6.160;2023-03-05T00:56:01;6.18;;;0.98;;
4448;SDS011;2237;51.870;6.160;2023-03-05T00:58:27;4.40;;;0.80;;
4448;SDS011;2237;51.870;6.160;2023-03-05T01:00:58;7.95;;;1.17;;
4448;SDS011;2237;51.870;6.160;2023-03-05T01:03:25;8.13;;;1.08;;
4448;SDS011;2237;51.870;6.160;2023-03-05T01:05:52;4.63;;;1.38;;
4448;SDS011;2237;51.870;6.160;2023-03-05T01:08:18;15.23;;;1.50;;
4448;SDS011;2237;51.870;6.160;2023-03-05T01:10:45;4.20;;;1.13;;
4448;SDS011;2237;51.870;6.160;2023-03-05T01:13:11;5.00;;;0.90;;
4448;SDS011;2237;51.870;6.160;2023-03-05T01:15:37;9.70;;;1.48;;
4448;SDS011;2237;51.870;6.160;2023-03-05T01:18:04;7.20;;;1.15;;
4448;SDS011;2237;51.870;6.160;2023-03-05T01:20:30;8.10;;;1.77;;
4448;SDS011;2237;51.870;6.160;2023-03-05T01:22:56;12.90;;;1.73;;
4448;SDS011;2237;51.870;6.160;2023-03-05T01:25:24;5.63;;;1.38;;
4448;SDS011;2237;51.870;6.160;2023-03-05T01:27:50;5.38;;;1.10;;
4448;SDS011;2237;51.870;6.160;2023-03-05T01:30:17;7.10;;;1.25;;
4448;SDS011;2237;51.870;6.160;2023-03-05T01:32:44;7.68;;;1.15;;
4448;SDS011;2237;51.870;6.160;2023-03-05T01:35:14;9.57;;;1.30;;
4448;SDS011;2237;51.870;6.160;2023-03-05T01:37:44;7.57;;;1.50;;
4448;SDS011;2237;51.870;6.160;2023-03-05T01:40:11;2.47;;;1.17;;
4448;SDS011;2237;51.870;6.160;2023-03-05T01:42:39;8.10;;;1.85;;
4448;SDS011;2237;51.870;6.160;2023-03-05T01:45:10;6.47;;;1.38;;
4448;SDS011;2237;51.870;6.160;2023-03-05T01:47:38;4.43;;;0.90;;
4448;SDS011;2237;51.870;6.160;2023-03-05T01:50:06;2.53;;;0.80;;
4448;SDS011;2237;51.870;6.160;2023-03-05T01:52:35;7.68;;;1.00;;
4448;SDS011;2237;51.870;6.160;2023-03-05T01:55:05;2.53;;;1.10;;
4448;SDS011;2237;51.870;6.160;2023-03-05T01:57:37;3.45;;;0.70;;
4448;SDS011;2237;51.870;6.160;2023-03-05T02:00:42;6.63;;;1.30;;
4448;SDS011;2237;51.870;6.160;2023-03-05T02:03:05;5.32;;;1.33;;
4448;SDS011;2237;51.870;6.160;2023-03-05T02:05:35;6.07;;;1.88;;
4448;SDS011;2237;51.870;6.160;2023-03-05T02:08:04;7.13;;;2.25;;
4448;SDS011;2237;51.870;6.160;2023-03-05T02:10:33;5.95;;;1.73;;
4448;SDS011;2237;51.870;6.160;2023-03-05T02:13:04;8.82;;;1.85;;
4448;SDS011;2237;51.870;6.160;2023-03-05T02:15:33;14.07;;;3.00;;
4448;SDS011;2237;51.870;6.160;2023-03-05T02:18:00;9.80;;;2.63;;
4448;SDS011;2237;51.870;6.160;2023-03-05T02:20:28;8.38;;;2.50;;
4448;SDS011;2237;51.870;6.160;2023-03-05T02:22:57;7.80;;;1.80;;
4448;SDS011;2237;51.870;6.160;2023-03-05T02:25:24;6.78;;;2.13;;
4448;SDS011;2237;51.870;6.160;2023-03-05T02:30:24;8.10;;;2.15;;
4448;SDS011;2237;51.870;6.160;2023-03-05T02:32:51;9.05;;;1.40;;
4448;SDS011;2237;51.870;6.160;2023-03-05T02:35:18;4.60;;;1.50;;
4448;SDS011;2237;51.870;6.160;2023-03-05T02:37:44;9.63;;;1.98;;
4448;SDS011;2237;51.870;6.160;2023-03-05T02:40:11;8.73;;;1.75;;
4448;SDS011;2237;51.870;6.160;2023-03-05T02:42:38;6.10;;;1.67;;
4448;SDS011;2237;51.870;6.160;2023-03-05T02:45:05;9.70;;;2.08;;
4448;SDS011;2237;51.870;6.160;2023-03-05T02:47:32;9.75;;;2.53;;
4448;SDS011;2237;51.870;6.160;2023-03-05T02:49:59;6.47;;;2.10;;
4448;SDS011;2237;51.870;6.160;2023-03-05T02:52:25;11.20;;;2.30;;
4448;SDS011;2237;51.870;6.160;2023-03-05T02:54:53;7.13;;;2.25;;
4448;SDS011;2237;51.870;6.160;2023-03-05T02:57:20;5.25;;;1.65;;
4448;SDS011;2237;51.870;6.160;2023-03-05T02:59:46;7.15;;;2.15;;
4448;SDS011;2237;51.870;6.160;2023-03-05T03:02:13;9.05;;;2.33;;
4448;SDS011;2237;51.870;6.160;2023-03-05T03:04:40;6.53;;;1.83;;
4448;SDS011;2237;51.870;6.160;2023-03-05T03:07:06;8.55;;;2.15;;
4448;SDS011;2237;51.870;6.160;2023-03-05T03:09:33;7.05;;;1.77;;
4448;SDS011;2237;51.870;6.160;2023-03-05T03:12:01;5.05;;;1.73;;
4448;SDS011;2237;51.870;6.160;2023-03-05T03:14:32;7.28;;;1.48;;
4448;SDS011;2237;51.870;6.160;2023-03-05T03:17:05;3.67;;;1.52;;
4448;SDS011;2237;51.870;6.160;2023-03-05T03:19:32;4.93;;;1.75;;
4448;SDS011;2237;51.870;6.160;2023-03-05T03:21:59;6.82;;;1.85;;
4448;SDS011;2237;51.870;6.160;2023-03-05T03:24:25;6.57;;;2.42;;
4448;SDS011;2237;51.870;6.160;2023-03-05T03:26:52;6.43;;;1.55;;
4448;SDS011;2237;51.870;6.160;2023-03-05T03:29:18;10.55;;;1.85;;
4448;SDS011;2237;51.870;6.160;2023-03-05T03:31:44;7.72;;;1.83;;
4448;SDS011;2237;51.870;6.160;2023-03-05T03:34:11;6.13;;;1.95;;
4448;SDS011;2237;51.870;6.160;2023-03-05T03:36:40;5.82;;;1.77;;
4448;SDS011;2237;51.870;6.160;2023-03-05T03:39:08;4.43;;;1.60;;
4448;SDS011;2237;51.870;6.160;2023-03-05T03:41:36;6.60;;;1.42;;
4448;SDS011;2237;51.870;6.160;2023-03-05T03:44:23;6.82;;;1.45;;
4448;SDS011;2237;51.870;6.160;2023-03-05T03:46:49;6.35;;;1.90;;
4448;SDS011;2237;51.870;6.160;2023-03-05T03:49:17;6.68;;;1.77;;
4448;SDS011;2237;51.870;6.160;2023-03-05T03:51:46;4.80;;;1.85;;
4448;SDS011;2237;51.870;6.160;2023-03-05T03:54:14;14.30;;;3.13;;
4448;SDS011;2237;51.870;6.160;2023-03-05T03:56:41;9.85;;;2.58;;
4448;SDS011;2237;51.870;6.160;2023-03-05T03:59:08;9.35;;;2.97;;
4448;SDS011;2237;51.870;6.160;2023-03-05T04:01:34;11.32;;;3.22;;
4448;SDS011;2237;51.870;6.160;2023-03-05T04:04:01;10.48;;;3.15;;
4448;SDS011;2237;51.870;6.160;2023-03-05T04:06:29;11.05;;;2.70;;
4448;SDS011;2237;51.870;6.160;2023-03-05T04:08:56;10.45;;;2.28;;
4448;SDS011;2237;51.870;6.160;2023-03-05T04:11:22;11.88;;;3.45;;
4448;SDS011;2237;51.870;6.160;2023-03-05T04:13:49;13.45;;;3.10;;
4448;SDS011;2237;51.870;6.160;2023-03-05T04:16:16;12.52;;;3.08;;
4448;SDS011;2237;51.870;6.160;2023-03-05T04:18:42;9.70;;;3.40;;
4448;SDS011;2237;51.870;6.160;2023-03-05T04:21:09;9.30;;;2.90;;
4448;SDS011;2237;51.870;6.160;2023-03-05T04:23:35;9.38;;;3.33;;
4448;SDS011;2237;51.870;6.160;2023-03-05T04:26:02;13.13;;;3.70;;
4448;SDS011;2237;51.870;6.160;2023-03-05T04:28:29;8.13;;;2.85;;
4448;SDS011;2237;51.870;6.160;2023-03-05T04:30:55;7.65;;;2.10;;
4448;SDS011;2237;51.870;6.160;2023-03-05T04:33:22;5.15;;;2.00;;
4448;SDS011;2237;51.870;6.160;2023-03-05T04:35:49;12.85;;;2.83;;
4448;SDS011;2237;51.870;6.160;2023-03-05T04:38:15;6.40;;;2.50;;
4448;SDS011;2237;51.870;6.160;2023-03-05T04:40:43;5.88;;;1.88;;
4448;SDS011;2237;51.870;6.160;2023-03-05T04:43:10;12.90;;;2.35;;
4448;SDS011;2237;51.870;6.160;2023-03-05T04:45:40;9.88;;;2.97;;
4448;SDS011;2237;51.870;6.160;2023-03-05T04:48:07;11.15;;;2.22;;
4448;SDS011;2237;51.870;6.160;2023-03-05T04:50:36;6.30;;;2.33;;
4448;SDS011;2237;51.870;6.160;2023-03-05T04:53:02;7.78;;;2.88;;
4448;SDS011;2237;51.870;6.160;2023-03-05T04:55:29;3.63;;;1.50;;
4448;SDS011;2237;51.870;6.160;2023-03-05T04:57:56;6.15;;;1.60;;
4448;SDS011;2237;51.870;6.160;2023-03-05T05:00:22;8.32;;;1.83;;
4448;SDS011;2237;51.870;6.160;2023-03-05T05:02:50;9.75;;;2.60;;
4448;SDS011;2237;51.870;6.160;2023-03-05T05:05:18;10.40;;;1.65;;
4448;SDS011;2237;51.870;6.160;2023-03-05T05:07:47;6.55;;;2.47;;
4448;SDS011;2237;51.870;6.160;2023-03-05T05:10:14;9.18;;;2.53;;
4448;SDS011;2237;51.870;6.160;2023-03-05T05:12:41;6.72;;;2.67;;
4448;SDS011;2237;51.870;6.160;2023-03-05T05:15:08;12.20;;;2.53;;
4448;SDS011;2237;51.870;6.160;2023-03-05T05:17:36;5.88;;;1.90;;
4448;SDS011;2237;51.870;6.160;2023-03-05T05:20:03;6.82;;;1.92;;
4448;SDS011;2237;51.870;6.160;2023-03-05T05:22:33;9.57;;;2.42;;
4448;SDS011;2237;51.870;6.160;2023-03-05T05:25:00;7.70;;;1.98;;
4448;SDS011;2237;51.870;6.160;2023-03-05T05:27:27;8.48;;;1.85;;
4448;SDS011;2237;51.870;6.160;2023-03-05T05:29:53;9.48;;;1.58;;
4448;SDS011;2237;51.870;6.160;2023-03-05T05:32:20;6.25;;;1.67;;
4448;SDS011;2237;51.870;6.160;2023-03-05T05:34:55;5.93;;;2.40;;
4448;SDS011;2237;51.870;6.160;2023-03-05T05:37:23;6.38;;;2.25;;
4448;SDS011;2237;51.870;6.160;2023-03-05T05:39:50;5.85;;;2.03;;
4448;SDS011;2237;51.870;6.160;2023-03-05T05:42:17;10.27;;;2.33;;
4448;SDS011;2237;51.870;6.160;2023-03-05T05:44:46;9.98;;;1.95;;
4448;SDS011;2237;51.870;6.160;2023-03-05T05:47:13;2.25;;;1.05;;
4448;SDS011;2237;51.870;6.160;2023-03-05T05:49:40;6.78;;;1.42;;
4448;SDS011;2237;51.870;6.160;2023-03-05T05:52:06;6.03;;;2.08;;
4448;SDS011;2237;51.870;6.160;2023-03-05T05:54:33;5.00;;;1.60;;
4448;SDS011;2237;51.870;6.160;2023-03-05T05:56:59;5.13;;;1.98;;
4448;SDS011;2237;51.870;6.160;2023-03-05T05:59:26;6.22;;;2.42;;
4448;SDS011;2237;51.870;6.160;2023-03-05T06:01:52;14.27;;;2.53;;
4448;SDS011;2237;51.870;6.160;2023-03-05T06:04:18;6.43;;;1.50;;
4448;SDS011;2237;51.870;6.160;2023-03-05T06:06:45;4.25;;;1.48;;
4448;SDS011;2237;51.870;6.160;2023-03-05T06:09:11;5.43;;;1.45;;
4448;SDS011;2237;51.870;6.160;2023-03-05T06:11:38;5.80;;;1.67;;
4448;SDS011;2237;51.870;6.160;2023-03-05T06:14:04;5.03;;;1.30;;
4448;SDS011;2237;51.870;6.160;2023-03-05T06:16:32;7.25;;;1.80;;
4448;SDS011;2237;51.870;6.160;2023-03-05T06:18:59;4.90;;;1.70;;
4448;SDS011;2237;51.870;6.160;2023-03-05T06:21:29;6.00;;;0.82;;
4448;SDS011;2237;51.870;6.160;2023-03-05T06:23:56;3.05;;;0.43;;
4448;SDS011;2237;51.870;6.160;2023-03-05T06:26:24;8.32;;;1.48;;
4448;SDS011;2237;51.870;6.160;2023-03-05T06:28:51;3.72;;;1.02;;
4448;SDS011;2237;51.870;6.160;2023-03-05T06:31:19;8.40;;;1.35;;
4448;SDS011;2237;51.870;6.160;2023-03-05T06:33:47;4.07;;;0.90;;
4448;SDS011;2237;51.870;6.160;2023-03-05T06:36:15;4.90;;;1.05;;
4448;SDS011;2237;51.870;6.160;2023-03-05T06:38:43;3.08;;;1.15;;
4448;SDS011;2237;51.870;6.160;2023-03-05T06:41:11;5.70;;;1.60;;
4448;SDS011;2237;51.870;6.160;2023-03-05T06:43:39;4.60;;;1.52;;
4448;SDS011;2237;51.870;6.160;2023-03-05T06:46:09;7.47;;;1.58;;
4448;SDS011;2237;51.870;6.160;2023-03-05T06:48:46;6.63;;;1.83;;
4448;SDS011;2237;51.870;6.160;2023-03-05T06:51:14;5.80;;;1.70;;
4448;SDS011;2237;51.870;6.160;2023-03-05T06:53:43;5.90;;;1.55;;
4448;SDS011;2237;51.870;6.160;2023-03-05T06:56:10;3.95;;;0.93;;
4448;SDS011;2237;51.870;6.160;2023-03-05T06:58:39;4.53;;;1.80;;
4448;SDS011;2237;51.870;6.160;2023-03-05T07:01:06;4.57;;;1.70;;
4448;SDS011;2237;51.870;6.160;2023-03-05T07:03:33;7.63;;;1.83;;
4448;SDS011;2237;51.870;6.160;2023-03-05T07:06:01;9.52;;;1.95;;
4448;SDS011;2237;51.870;6.160;2023-03-05T07:08:29;3.25;;;1.27;;
4448;SDS011;2237;51.870;6.160;2023-03-05T07:10:56;5.43;;;1.58;;
4448;SDS011;2237;51.870;6.160;2023-03-05T07:13:22;7.57;;;2.33;;
4448;SDS011;2237;51.870;6.160;2023-03-05T07:15:49;4.80;;;1.17;;
4448;SDS011;2237;51.870;6.160;2023-03-05T07:18:15;4.28;;;1.25;;
4448;SDS011;2237;51.870;6.160;2023-03-05T07:20:42;4.32;;;1.02;;
4448;SDS011;2237;51.870;6.160;2023-03-05T07:23:08;9.43;;;2.25;;
4448;SDS011;2237;51.870;6.160;2023-03-05T07:25:35;4.40;;;1.40;;
4448;SDS011;2237;51.870;6.160;2023-03-05T07:28:03;8.93;;;1.80;;
4448;SDS011;2237;51.870;6.160;2023-03-05T07:30:33;3.78;;;1.73;;
4448;SDS011;2237;51.870;6.160;2023-03-05T07:32:59;5.40;;;1.60;;
4448;SDS011;2237;51.870;6.160;2023-03-05T07:35:27;6.20;;;1.10;;
4448;SDS011;2237;51.870;6.160;2023-03-05T07:37:53;3.67;;;1.60;;
4448;SDS011;2237;51.870;6.160;2023-03-05T07:40:20;4.55;;;1.52;;
4448;SDS011;2237;51.870;6.160;2023-03-05T07:42:47;3.42;;;1.30;;
4448;SDS011;2237;51.870;6.160;2023-03-05T07:45:13;3.90;;;1.88;;
4448;SDS011;2237;51.870;6.160;2023-03-05T07:47:40;3.83;;;1.85;;
4448;SDS011;2237;51.870;6.160;2023-03-05T07:50:06;3.95;;;1.27;;
4448;SDS011;2237;51.870;6.160;2023-03-05T07:52:33;5.25;;;1.80;;
4448;SDS011;2237;51.870;6.160;2023-03-05T07:54:59;5.90;;;2.03;;
4448;SDS011;2237;51.870;6.160;2023-03-05T07:57:26;6.18;;;2.10;;
4448;SDS011;2237;51.870;6.160;2023-03-05T07:59:52;2.40;;;1.00;;
4448;SDS011;2237;51.870;6.160;2023-03-05T08:02:18;7.72;;;1.98;;
4448;SDS011;2237;51.870;6.160;2023-03-05T08:04:45;7.68;;;2.00;;
4448;SDS011;2237;51.870;6.160;2023-03-05T08:07:15;7.30;;;2.22;;
4448;SDS011;2237;51.870;6.160;2023-03-05T08:09:41;5.43;;;1.65;;
4448;SDS011;2237;51.870;6.160;2023-03-05T08:12:08;5.72;;;1.90;;
4448;SDS011;2237;51.870;6.160;2023-03-05T08:14:35;6.05;;;1.98;;
4448;SDS011;2237;51.870;6.160;2023-03-05T08:17:02;7.28;;;2.63;;
4448;SDS011;2237;51.870;6.160;2023-03-05T08:19:29;6.32;;;2.45;;
4448;SDS011;2237;51.870;6.160;2023-03-05T08:21:56;4.93;;;1.50;;
4448;SDS011;2237;51.870;6.160;2023-03-05T08:24:22;10.05;;;1.42;;
4448;SDS011;2237;51.870;6.160;2023-03-05T08:26:54;4.00;;;1.25;;
4448;SDS011;2237;51.870;6.160;2023-03-05T08:29:24;4.80;;;1.20;;
4448;SDS011;2237;51.870;6.160;2023-03-05T08:31:51;5.63;;;1.30;;
4448;SDS011;2237;51.870;6.160;2023-03-05T08:34:21;3.03;;;1.02;;
4448;SDS011;2237;51.870;6.160;2023-03-05T08:36:48;5.53;;;0.98;;
4448;SDS011;2237;51.870;6.160;2023-03-05T08:39:14;2.70;;;1.13;;
4448;SDS011;2237;51.870;6.160;2023-03-05T08:41:41;5.05;;;1.55;;
4448;SDS011;2237;51.870;6.160;2023-03-05T08:44:08;5.82;;;1.50;;
4448;SDS011;2237;51.870;6.160;2023-03-05T08:46:34;4.20;;;1.40;;
4448;SDS011;2237;51.870;6.160;2023-03-05T08:49:02;2.72;;;0.93;;
4448;SDS011;2237;51.870;6.160;2023-03-05T08:51:28;4.55;;;0.88;;
4448;SDS011;2237;51.870;6.160;2023-03-05T08:53:55;4.20;;;1.83;;
4448;SDS011;2237;51.870;6.160;2023-03-05T08:56:23;4.00;;;1.30;;
4448;SDS011;2237;51.870;6.160;2023-03-05T08:58:52;5.70;;;1.60;;
4448;SDS011;2237;51.870;6.160;2023-03-05T09:01:19;5.22;;;1.58;;
4448;SDS011;2237;51.870;6.160;2023-03-05T09:03:45;3.58;;;0.88;;
4448;SDS011;2237;51.870;6.160;2023-03-05T09:06:12;4.78;;;1.00;;
4448;SDS011;2237;51.870;6.160;2023-03-05T09:08:38;3.80;;;1.25;;
4448;SDS011;2237;51.870;6.160;2023-03-05T09:11:06;5.05;;;1.45;;
4448;SDS011;2237;51.870;6.160;2023-03-05T09:13:33;4.45;;;1.30;;
4448;SDS011;2237;51.870;6.160;2023-03-05T09:16:02;2.90;;;1.20;;
4448;SDS011;2237;51.870;6.160;2023-03-05T09:18:30;4.68;;;1.25;;
4448;SDS011;2237;51.870;6.160;2023-03-05T09:20:56;4.57;;;1.02;;
4448;SDS011;2237;51.870;6.160;2023-03-05T09:23:23;5.15;;;1.27;;
4448;SDS011;2237;51.870;6.160;2023-03-05T09:25:50;4.50;;;1.10;;
4448;SDS011;2237;51.870;6.160;2023-03-05T09:28:16;2.67;;;1.00;;
4448;SDS011;2237;51.870;6.160;2023-03-05T09:30:42;4.35;;;1.20;;
4448;SDS011;2237;51.870;6.160;2023-03-05T09:33:09;7.35;;;1.20;;
4448;SDS011;2237;51.870;6.160;2023-03-05T09:35:36;5.75;;;1.45;;
4448;SDS011;2237;51.870;6.160;2023-03-05T09:38:03;4.28;;;1.05;;
4448;SDS011;2237;51.870;6.160;2023-03-05T09:40:31;1.88;;;1.00;;
4448;SDS011;2237;51.870;6.160;2023-03-05T09:46:19;12.02;;;1.10;;
4448;SDS011;2237;51.870;6.160;2023-03-05T09:52:20;4.28;;;1.38;;
4448;SDS011;2237;51.870;6.160;2023-03-05T09:54:54;6.07;;;1.42;;
4448;SDS011;2237;51.870;6.160;2023-03-05T09:57:23;3.45;;;0.77;;
4448;SDS011;2237;51.870;6.160;2023-03-05T10:02:25;3.75;;;1.00;;
4448;SDS011;2237;51.870;6.160;2023-03-05T10:07:43;8.25;;;1.33;;
4448;SDS011;2237;51.870;6.160;2023-03-05T10:10:17;7.72;;;1.30;;
4448;SDS011;2237;51.870;6.160;2023-03-05T10:12:51;4.60;;;0.82;;
4448;SDS011;2237;51.870;6.160;2023-03-05T10:18:01;1.08;;;0.57;;
4448;SDS011;2237;51.870;6.160;2023-03-05T10:20:40;5.57;;;0.90;;
4448;SDS011;2237;51.870;6.160;2023-03-05T10:28:34;2.20;;;0.80;;
4448;SDS011;2237;51.870;6.160;2023-03-05T10:33:53;1.40;;;0.55;;
4448;SDS011;2237;51.870;6.160;2023-03-05T10:42:19;1.85;;;0.60;;
4448;SDS011;2237;51.870;6.160;2023-03-05T10:45:16;3.38;;;1.10;;
4448;SDS011;2237;51.870;6.160;2023-03-05T10:47:48;2.60;;;1.13;;
4448;SDS011;2237;51.870;6.160;2023-03-05T10:50:22;1.90;;;0.85;;
4448;SDS011;2237;51.870;6.160;2023-03-05T10:52:59;1.38;;;0.60;;
4448;SDS011;2237;51.870;6.160;2023-03-05T10:55:39;2.85;;;0.98;;
4448;SDS011;2237;51.870;6.160;2023-03-05T10:58:11;1.17;;;0.40;;
4448;SDS011;2237;51.870;6.160;2023-03-05T11:00:39;1.75;;;0.60;;
4448;SDS011;2237;51.870;6.160;2023-03-05T11:03:23;2.92;;;0.60;;
4448;SDS011;2237;51.870;6.160;2023-03-05T11:05:51;2.90;;;1.23;;
4448;SDS011;2237;51.870;6.160;2023-03-05T11:08:32;2.70;;;1.25;;
4448;SDS011;2237;51.870;6.160;2023-03-05T11:11:16;2.35;;;1.15;;
4448;SDS011;2237;51.870;6.160;2023-03-05T11:13:57;2.63;;;0.95;;
4448;SDS011;2237;51.870;6.160;2023-03-05T11:16:30;1.60;;;0.60;;
4448;SDS011;2237;51.870;6.160;2023-03-05T11:19:15;1.73;;;0.60;;
4448;SDS011;2237;51.870;6.160;2023-03-05T11:21:46;1.85;;;0.75;;
4448;SDS011;2237;51.870;6.160;2023-03-05T11:24:41;2.22;;;0.88;;
4448;SDS011;2237;51.870;6.160;2023-03-05T11:27:21;1.92;;;0.65;;
4448;SDS011;2237;51.870;6.160;2023-03-05T11:29:50;0.93;;;0.43;;
4448;SDS011;2237;51.870;6.160;2023-03-05T11:32:22;5.90;;;1.20;;
4448;SDS011;2237;51.870;6.160;2023-03-05T11:34:50;4.35;;;1.40;;
4448;SDS011;2237;51.870;6.160;2023-03-05T11:37:39;3.63;;;0.88;;
4448;SDS011;2237;51.870;6.160;2023-03-05T11:42:44;2.78;;;1.00;;
4448;SDS011;2237;51.870;6.160;2023-03-05T11:45:21;8.32;;;1.17;;
4448;SDS011;2237;51.870;6.160;2023-03-05T11:47:56;4.80;;;1.35;;
4448;SDS011;2237;51.870;6.160;2023-03-05T11:50:27;0.90;;;0.57;;
4448;SDS011;2237;51.870;6.160;2023-03-05T11:55:43;3.42;;;0.82;;
4448;SDS011;2237;51.870;6.160;2023-03-05T12:01:14;5.03;;;0.98;;
4448;SDS011;2237;51.870;6.160;2023-03-05T12:03:43;2.55;;;0.82;;
4448;SDS011;2237;51.870;6.160;2023-03-05T12:08:48;4.13;;;1.02;;
4448;SDS011;2237;51.870;6.160;2023-03-05T12:11:22;2.70;;;0.80;;
4448;SDS011;2237;51.870;6.160;2023-03-05T12:13:59;2.08;;;0.80;;
4448;SDS011;2237;51.870;6.160;2023-03-05T12:22:14;2.97;;;1.10;;
4448;SDS011;2237;51.870;6.160;2023-03-05T12:24:45;4.22;;;1.50;;
4448;SDS011;2237;51.870;6.160;2023-03-05T12:27:13;2.95;;;0.80;;
4448;SDS011;2237;51.870;6.160;2023-03-05T12:29:43;1.48;;;0.63;;
4448;SDS011;2237;51.870;6.160;2023-03-05T12:35:03;2.25;;;0.88;;
4448;SDS011;2237;51.870;6.160;2023-03-05T12:47:41;3.88;;;0.73;;
4448;SDS011;2237;51.870;6.160;2023-03-05T12:52:54;6.38;;;0.98;;
4448;SDS011;2237;51.870;6.160;2023-03-05T12:55:33;0.85;;;0.50;;
4448;SDS011;2237;51.870;6.160;2023-03-05T13:00:44;2.78;;;0.82;;
4448;SDS011;2237;51.870;6.160;2023-03-05T13:03:18;1.85;;;0.50;;
4448;SDS011;2237;51.870;6.160;2023-03-05T13:05:53;1.55;;;0.50;;
4448;SDS011;2237;51.870;6.160;2023-03-05T13:08:25;1.30;;;0.40;;
4448;SDS011;2237;51.870;6.160;2023-03-05T13:11:07;2.88;;;0.60;;
4448;SDS011;2237;51.870;6.160;2023-03-05T13:13:44;5.00;;;0.68;;
4448;SDS011;2237;51.870;6.160;2023-03-05T13:16:28;3.58;;;0.57;;
4448;SDS011;2237;51.870;6.160;2023-03-05T13:19:01;3.33;;;0.47;;
4448;SDS011;2237;51.870;6.160;2023-03-05T13:21:29;2.08;;;0.50;;
4448;SDS011;2237;51.870;6.160;2023-03-05T13:23:58;2.67;;;0.70;;
4448;SDS011;2237;51.870;6.160;2023-03-05T13:26:36;1.70;;;0.50;;
4448;SDS011;2237;51.870;6.160;2023-03-05T13:31:45;4.45;;;0.70;;
4448;SDS011;2237;51.870;6.160;2023-03-05T13:34:14;2.88;;;0.85;;
4448;SDS011;2237;51.870;6.160;2023-03-05T13:36:46;2.90;;;0.90;;
4448;SDS011;2237;51.870;6.160;2023-03-05T13:39:19;5.45;;;0.90;;
4448;SDS011;2237;51.870;6.160;2023-03-05T13:41:56;2.75;;;0.90;;
4448;SDS011;2237;51.870;6.160;2023-03-05T13:44:28;3.42;;;0.77;;
4448;SDS011;2237;51.870;6.160;2023-03-05T13:47:18;1.95;;;0.73;;
4448;SDS011;2237;51.870;6.160;2023-03-05T13:49:46;5.43;;;0.70;;
4448;SDS011;2237;51.870;6.160;2023-03-05T13:52:22;4.07;;;1.10;;
4448;SDS011;2237;51.870;6.160;2023-03-05T13:54:49;2.00;;;0.80;;
4448;SDS011;2237;51.870;6.160;2023-03-05T13:57:36;2.35;;;0.98;;
4448;SDS011;2237;51.870;6.160;2023-03-05T14:03:13;4.35;;;1.00;;
4448;SDS011;2237;51.870;6.160;2023-03-05T14:05:52;2.35;;;0.95;;
4448;SDS011;2237;51.870;6.160;2023-03-05T14:08:20;2.25;;;1.00;;
4448;SDS011;2237;51.870;6.160;2023-03-05T14:10:51;3.63;;;1.20;;
4448;SDS011;2237;51.870;6.160;2023-03-05T14:13:22;2.85;;;1.20;;
4448;SDS011;2237;51.870;6.160;2023-03-05T14:16:02;2.03;;;0.93;;
4448;SDS011;2237;51.870;6.160;2023-03-05T14:18:32;6.22;;;1.38;;
4448;SDS011;2237;51.870;6.160;2023-03-05T14:21:06;3.22;;;1.00;;
4448;SDS011;2237;51.870;6.160;2023-03-05T14:23:36;2.50;;;0.85;;
4448;SDS011;2237;51.870;6.160;2023-03-05T14:31:26;6.47;;;3.00;;
4448;SDS011;2237;51.870;6.160;2023-03-05T14:34:02;4.40;;;2.38;;
4448;SDS011;2237;51.870;6.160;2023-03-05T14:36:31;3.97;;;1.42;;
4448;SDS011;2237;51.870;6.160;2023-03-05T14:38:58;2.10;;;1.02;;
4448;SDS011;2237;51.870;6.160;2023-03-05T14:41:39;2.67;;;1.00;;
4448;SDS011;2237;51.870;6.160;2023-03-05T14:44:14;6.10;;;1.05;;
4448;SDS011;2237;51.870;6.160;2023-03-05T14:46:42;2.25;;;1.17;;
4448;SDS011;2237;51.870;6.160;2023-03-05T14:49:13;3.83;;;1.45;;
4448;SDS011;2237;51.870;6.160;2023-03-05T14:51:40;3.28;;;1.02;;
4448;SDS011;2237;51.870;6.160;2023-03-05T14:54:21;4.82;;;1.73;;
4448;SDS011;2237;51.870;6.160;2023-03-05T14:56:50;3.45;;;1.23;;
4448;SDS011;2237;51.870;6.160;2023-03-05T14:59:18;5.25;;;1.20;;
4448;SDS011;2237;51.870;6.160;2023-03-05T15:01:47;1.65;;;0.90;;
4448;SDS011;2237;51.870;6.160;2023-03-05T15:04:15;1.52;;;0.85;;
4448;SDS011;2237;51.870;6.160;2023-03-05T15:06:44;4.95;;;1.83;;
4448;SDS011;2237;51.870;6.160;2023-03-05T15:09:16;4.05;;;2.00;;
4448;SDS011;2237;51.870;6.160;2023-03-05T15:11:44;2.50;;;1.10;;
4448;SDS011;2237;51.870;6.160;2023-03-05T15:14:11;3.58;;;1.10;;
4448;SDS011;2237;51.870;6.160;2023-03-05T15:16:38;3.45;;;1.27;;
4448;SDS011;2237;51.870;6.160;2023-03-05T15:19:11;4.47;;;1.40;;
4448;SDS011;2237;51.870;6.160;2023-03-05T15:21:38;2.03;;;1.13;;
4448;SDS011;2237;51.870;6.160;2023-03-05T15:24:05;3.50;;;0.98;;
4448;SDS011;2237;51.870;6.160;2023-03-05T15:26:32;4.72;;;1.30;;
4448;SDS011;2237;51.870;6.160;2023-03-05T15:28:58;2.20;;;1.35;;
4448;SDS011;2237;51.870;6.160;2023-03-05T15:31:25;2.83;;;1.30;;
4448;SDS011;2237;51.870;6.160;2023-03-05T15:33:51;4.65;;;1.50;;
4448;SDS011;2237;51.870;6.160;2023-03-05T15:36:18;1.98;;;1.13;;
4448;SDS011;2237;51.870;6.160;2023-03-05T15:38:44;2.15;;;1.00;;
4448;SDS011;2237;51.870;6.160;2023-03-05T15:41:12;2.47;;;1.00;;
4448;SDS011;2237;51.870;6.160;2023-03-05T15:43:38;4.50;;;1.13;;
4448;SDS011;2237;51.870;6.160;2023-03-05T15:46:05;3.60;;;0.95;;
4448;SDS011;2237;51.870;6.160;2023-03-05T15:48:32;1.58;;;0.75;;
4448;SDS011;2237;51.870;6.160;2023-03-05T15:50:58;2.65;;;1.00;;
4448;SDS011;2237;51.870;6.160;2023-03-05T15:53:24;3.13;;;0.90;;
4448;SDS011;2237;51.870;6.160;2023-03-05T15:55:51;1.13;;;0.80;;
4448;SDS011;2237;51.870;6.160;2023-03-05T15:58:17;2.60;;;0.80;;
4448;SDS011;2237;51.870;6.160;2023-03-05T16:00:43;1.40;;;0.95;;
4448;SDS011;2237;51.870;6.160;2023-03-05T16:03:12;5.00;;;1.40;;
4448;SDS011;2237;51.870;6.160;2023-03-05T16:05:38;3.28;;;1.45;;
4448;SDS011;2237;51.870;6.160;2023-03-05T16:08:05;4.68;;;1.00;;
4448;SDS011;2237;51.870;6.160;2023-03-05T16:10:32;2.00;;;0.93;;
4448;SDS011;2237;51.870;6.160;2023-03-05T16:13:02;3.30;;;1.05;;
4448;SDS011;2237;51.870;6.160;2023-03-05T16:15:32;4.20;;;1.38;;
4448;SDS011;2237;51.870;6.160;2023-03-05T16:18:01;4.80;;;1.48;;
4448;SDS011;2237;51.870;6.160;2023-03-05T16:20:31;3.80;;;1.13;;
4448;SDS011;2237;51.870;6.160;2023-03-05T16:22:57;2.03;;;0.70;;
4448;SDS011;2237;51.870;6.160;2023-03-05T16:25:23;0.82;;;0.30;;
4448;SDS011;2237;51.870;6.160;2023-03-05T16:27:50;1.40;;;0.70;;
4448;SDS011;2237;51.870;6.160;2023-03-05T16:30:16;0.80;;;0.45;;
4448;SDS011;2237;51.870;6.160;2023-03-05T16:32:43;1.65;;;0.70;;
4448;SDS011;2237;51.870;6.160;2023-03-05T16:35:09;1.08;;;0.65;;
4448;SDS011;2237;51.870;6.160;2023-03-05T16:37:39;4.30;;;1.23;;
4448;SDS011;2237;51.870;6.160;2023-03-05T16:40:07;2.55;;;0.95;;
4448;SDS011;2237;51.870;6.160;2023-03-05T16:42:35;1.98;;;0.95;;
4448;SDS011;2237;51.870;6.160;2023-03-05T16:45:01;3.40;;;1.15;;